Pagrindinis puslapis
METAR-TAF:

METAR-TAF

Oro uostai :

Hagi, Japonija

platuma: 34-40N, ilguma: 131-48E, Aukštis: 54 m

Dabartinis oras

Ataskaita buvo paskelbta 30 minutes, ne 00:00 UTC
Vėjas 8 kt iš Šiaurės, svyruoja nuo Šiaurės/Šiaurės Vakarų ir Šiaurės Rytų
Temperatūra 12°C
Drėgmė 54%
Slėgis 1024 hPa
Matomumas 10 km arba daugiau
Mažai debesys ne aukštis 3000 ft
Išsisklaidę debesys ne aukštis 3500 ft

METAR: RJOW 100000Z 01008KT 340V040 9999 FEW030 SCT035 12/03 Q1024

Laikas: 09:30 (00:30 UTC)


TAF: trūkstamas

Orai ataskaitas ir orų prognozės (METAR, TAF).

turimą stotys yra geltonos ir raudonos taškus žemėlapyje.

Perkelti pele per norėdami pamatyti stoties vardą.

Tada spustelėkite, norėdami matyti oro stebėjimo ir prognozės.

Norėdami pakeisti žemėlapį: spustelėkite ant žalios mygtukų su juodo kryžiaus žemyn,; žalią mygtuką su brūkšneliu, jei norite nutolinti; arba žalių rodyklių gretimoms žemėlapius.


METAR-TAF: